Aeroporto :
LOGIN :

Iscrizione | Disclaimer

   EN    FR    IT 

 










Sommario :    VFR   VFR Marginale   IFR   IFR Intensivo   IFR Molto Intensivo
Visibilità : 
Base nubi : 
>= 8 km
>= 3000ft
5 / 8 km
1000 / 3000 ft
1500m / 5 km
500 / 1000 ft
800 / 1500m
200 / 500 ft
< 800m
< 200 ft
Simboli :   Temporali  Nebbia  Neve Forte  Precipitazioni Forti  Vento > 20 kt
SIGMETs :   Varie  Temporali  Ghiacco  Turbolenza  Onda orograficha  Ceneri Vulcaniche






- Altitudine del aeroporto : 20 ft
- Codice IATA : LSI


EGPB - Sumburgh

ULTIMO METAR :
  • 202020Z 26026G36KT 9999 VCSH SCT014CB BKN027 05/02 Q0987 TEMPO SHRAGS

METARs OBSOLETI :
  • 201950Z 26027KT 7000 -RA BKN014CB 04/02 Q0987 TEMPO SHRAGS
  • 201920Z 25020KT 9999 -SHRA BKN020CB 05/02 Q0986 TEMPO SHRA
  • 201850Z 24028KT 9999 -SHRA FEW009CB SCT025 BKN037 05/02 Q0986 TEMPO SHRA
  • 201820Z 24035KT 9999 SCT019CB 04/02 Q0986 TEMPO SHRA
  • 201750Z 25029KT 9999 VCSH SCT018CB 05/02 Q0986

TAF TAF EGPB
Valido dal 20 a 18 ore il 21 a 03 ore UTC


201658Z 2018/2103 25022KT 9999 FEW012 SCT030
TEMPO 2018/2103 25025G35KT 6000 SHRA SHGS BKN012CB
PROB40
TEMPO 2018/2021 26032G45KT 3000 SHSNRA BKN009CB
PROB40
TEMPO 2021/2103 26032G45KT



MetMap, La meteo Aeronautica in un colpo d'occhio ! - Copyright ORBIFLY Dicembre 2007 - Disclaimer

ORBIFLY MET'MAP TEAM :

Programmazione e sviluppo : Alexandra Zaïnal
Concezione : Baudouin d'Aumeries
Aiuto per la programmazione : Marc-Olivier Méhu
Supporto tecnico e logistico : Manuel Goepfert
Aiuto per la traduzione : Arnaldo La Scala

Contatto : metmap@orbifly.com




FONTI E CREDITI :

   NOAA